Time;durP1;ratioP1;P1;durP2;ratioP2;P2;SDS_P1;SDS_P2;PMS_P1;PMS_P2;Temp;Humidity;BMP_temperature;BMP_pressure;BME280_temperature;BME280_humidity;BME280_pressure;Samples;Min_cycle;Max_cycle;Signal;HPM_P1;HPM_P2
2021/12/08 00:00:34;;;;;;;;;;;;;;;4.05;100.00;99029.13;5038765;28;19912;-79
2021/12/08 00:03:00;;;;;;;;;;;;;;;4.09;100.00;99042.31;5038274;28;20007;-80
2021/12/08 00:05:27;;;;;;;;;;;;;;;4.11;100.00;99037.16;5038741;28;19944;-79
2021/12/08 00:07:52;;;;;;;;;;;;;;;4.16;100.00;99043.38;5038200;28;20448;-79
2021/12/08 00:13:07;;;;;;;;;;;;;;;4.29;100.00;99037.75;5056265;28;20370;-79
2021/12/08 00:15:34;;;;;;;;;;;;;;;4.37;100.00;99048.41;5038580;28;19917;-79
2021/12/08 00:18:02;;;;;;;;;;;;;;;4.34;100.00;99018.78;5038307;28;19921;-79
2021/12/08 00:20:31;;;;;;;;;;;;;;;4.37;100.00;99016.28;5038138;28;19924;-79
2021/12/08 00:22:56;;;;;;;;;;;;;;;4.40;100.00;98998.13;5038160;28;19917;-80
2021/12/08 00:25:23;;;;;;;;;;;;;;;4.41;100.00;98994.66;5037966;28;19917;-80
2021/12/08 00:27:52;;;;;;;;;;;;;;;4.39;100.00;98991.13;5037955;28;19924;-78
2021/12/08 00:30:18;;;;;;;;;;;;;;;4.40;100.00;99008.53;5038082;28;19942;-80
2021/12/08 00:32:44;;;;;;;;;;;;;;;4.48;100.00;99007.91;5038216;28;20423;-79
2021/12/08 00:35:10;;;;;;;;;;;;;;;4.50;100.00;99015.78;5055533;28;19974;-80
2021/12/08 00:37:35;;;;;;;;;;;;;;;4.55;100.00;99016.81;5037624;28;19916;-79
2021/12/08 00:40:01;;;;;;;;;;;;;;;4.60;100.00;99011.72;5037645;28;19978;-80
2021/12/08 00:42:26;;;;;;;;;;;;;;;4.65;100.00;99013.66;5037861;28;19917;-78
2021/12/08 00:44:51;;;;;;;;;;;;;;;4.67;100.00;99008.47;5037632;28;19916;-78
2021/12/08 00:47:22;;;;;;;;;;;;;;;4.79;100.00;99014.06;5037489;28;19916;-80
2021/12/08 00:49:47;;;;;;;;;;;;;;;4.78;100.00;99014.03;5037967;28;19916;-79
2021/12/08 00:52:14;;;;;;;;;;;;;;;4.80;100.00;99025.38;5037903;28;20571;-79
2021/12/08 00:54:39;;;;;;;;;;;;;;;4.82;100.00;99034.16;5037620;28;19916;-79
2021/12/08 00:57:05;;;;;;;;;;;;;;;4.90;100.00;99037.84;5036896;28;19924;-79
2021/12/08 00:59:31;;;;;;;;;;;;;;;4.87;100.00;99042.09;5038012;28;19948;-78
2021/12/08 01:02:02;;;;;;;;;;;;;;;4.86;100.00;99041.19;5037826;28;20031;-79
2021/12/08 01:04:27;;;;;;;;;;;;;;;4.90;100.00;99044.81;5021919;28;19925;-79
2021/12/08 01:06:52;;;;;;;;;;;;;;;4.92;100.00;99046.59;5037131;28;20576;-79
2021/12/08 01:09:18;;;;;;;;;;;;;;;4.88;100.00;99043.84;5037714;28;19917;-78
2021/12/08 01:11:43;;;;;;;;;;;;;;;4.91;100.00;99049.16;5037462;28;19971;-79
2021/12/08 01:14:08;;;;;;;;;;;;;;;4.89;100.00;99048.25;5037339;28;19920;-81
2021/12/08 01:16:34;;;;;;;;;;;;;;;4.86;100.00;99049.03;5037337;28;19970;-79
2021/12/08 01:18:59;;;;;;;;;;;;;;;4.80;100.00;99047.13;5035841;28;20311;-79
2021/12/08 01:21:24;;;;;;;;;;;;;;;4.76;100.00;99062.66;5035917;28;19916;-79
2021/12/08 01:23:50;;;;;;;;;;;;;;;4.75;100.00;99068.69;5036576;28;20009;-79
2021/12/08 01:26:15;;;;;;;;;;;;;;;4.76;100.00;99071.34;5037172;28;20059;-79
2021/12/08 01:28:44;;;;;;;;;;;;;;;4.77;100.00;99072.22;5036627;28;19917;-78
2021/12/08 01:31:09;;;;;;;;;;;;;;;4.82;100.00;99073.25;5037589;28;19916;-78
2021/12/08 01:33:36;;;;;;;;;;;;;;;4.83;100.00;99078.53;5036959;28;19917;-79
2021/12/08 01:36:03;;;;;;;;;;;;;;;4.85;100.00;99082.06;5036943;28;19922;-79
2021/12/08 01:38:28;;;;;;;;;;;;;;;4.87;100.00;99079.50;5037068;28;19917;-80
2021/12/08 01:40:54;;;;;;;;;;;;;;;4.88;100.00;99064.72;5036452;28;19923;-80
2021/12/08 01:45:57;;;;;;;;;;;;;;;4.87;100.00;99061.25;5036964;28;19925;-79
2021/12/08 01:46:12;;;;;;;;;;;;;;;4.85;100.00;99068.16;5048916;28;19924;-79
2021/12/08 01:48:40;;;;;;;;;;;;;;;4.85;100.00;99065.53;5036690;28;19943;-79
2021/12/08 01:51:10;;;;;;;;;;;;;;;4.91;100.00;99073.53;5036688;28;20341;-80
2021/12/08 01:53:35;;;;;;;;;;;;;;;4.97;100.00;99080.66;5036768;28;20262;-79
2021/12/08 01:56:01;;;;;;;;;;;;;;;5.01;100.00;99088.59;5036692;28;19921;-80
2021/12/08 01:58:28;;;;;;;;;;;;;;;4.99;100.00;99086.81;5036502;28;19916;-79
2021/12/08 02:00:55;;;;;;;;;;;;;;;5.07;100.00;99095.75;5036861;28;19920;-79
2021/12/08 02:03:21;;;;;;;;;;;;;;;5.10;100.00;99095.84;5036851;28;20245;-79
2021/12/08 02:05:48;;;;;;;;;;;;;;;5.08;100.00;99102.75;5036562;28;19970;-79
2021/12/08 02:08:15;;;;;;;;;;;;;;;5.11;100.00;99095.00;5037021;28;19924;-79
2021/12/08 02:10:41;;;;;;;;;;;;;;;5.12;100.00;99090.66;5041131;28;19921;-79
2021/12/08 02:13:07;;;;;;;;;;;;;;;5.09;100.00;99099.28;5041190;28;19917;-80
2021/12/08 02:15:34;;;;;;;;;;;;;;;5.11;100.00;99099.31;5041019;28;19923;-79
2021/12/08 02:17:59;;;;;;;;;;;;;;;5.11;100.00;99101.94;5040704;28;19999;-79
2021/12/08 02:20:26;;;;;;;;;;;;;;;5.10;100.00;99111.50;5041331;28;20328;-79
2021/12/08 02:22:53;;;;;;;;;;;;;;;5.08;100.00;99109.66;5039943;28;19962;-79
2021/12/08 02:25:19;;;;;;;;;;;;;;;5.08;100.00;99112.28;5040668;28;20407;-78
2021/12/08 02:27:46;;;;;;;;;;;;;;;5.07;100.00;99119.22;5040213;28;19916;-79
2021/12/08 02:30:36;;;;;;;;;;;;;;;5.09;100.00;99121.88;5040591;28;19917;-79
2021/12/08 02:49:13;;;;;;;;;;;;;;;4.91;100.00;99103.94;5058075;28;19917;-79
2021/12/08 02:51:38;;;;;;;;;;;;;;;4.87;100.00;99107.31;5040382;28;19959;-79
2021/12/08 02:54:05;;;;;;;;;;;;;;;4.85;100.00;99102.03;5040043;28;19967;-78
2021/12/08 02:56:30;;;;;;;;;;;;;;;4.83;100.00;99111.53;5040132;28;20363;-79
2021/12/08 02:58:56;;;;;;;;;;;;;;;4.85;100.00;99112.47;5039286;28;19916;-78
2021/12/08 03:01:22;;;;;;;;;;;;;;;4.89;100.00;99109.09;5039803;28;20292;-79
2021/12/08 03:03:47;;;;;;;;;;;;;;;4.93;100.00;99115.31;5039913;28;19924;-78
2021/12/08 03:06:12;;;;;;;;;;;;;;;4.93;100.00;99120.53;5039931;28;19917;-80
2021/12/08 03:08:40;;;;;;;;;;;;;;;4.97;100.00;99125.91;5040152;28;19969;-79
2021/12/08 03:11:06;;;;;;;;;;;;;;;4.99;100.00;99119.00;5039775;28;19920;-77
2021/12/08 03:13:33;;;;;;;;;;;;;;;4.93;100.00;99121.41;5039667;28;19923;-79
2021/12/08 03:15:59;;;;;;;;;;;;;;;4.96;100.00;99134.56;5039617;28;19924;-78
2021/12/08 03:18:32;;;;;;;;;;;;;;;4.96;100.00;99129.34;5039537;28;19917;-77
2021/12/08 03:20:58;;;;;;;;;;;;;;;4.92;100.00;99113.53;5038857;28;19924;-79
2021/12/08 03:23:30;;;;;;;;;;;;;;;4.93;100.00;99125.75;5040104;28;19921;-79
2021/12/08 03:25:55;;;;;;;;;;;;;;;4.91;100.00;99135.25;5039281;28;20605;-79
2021/12/08 03:28:27;;;;;;;;;;;;;;;4.83;100.00;99125.47;5022943;28;19924;-79
2021/12/08 03:31:06;;;;;;;;;;;;;;;4.76;100.00;99122.63;5038242;28;19917;-79
2021/12/08 03:33:31;;;;;;;;;;;;;;;4.75;100.00;99139.09;5037782;28;20290;-79
2021/12/08 03:35:57;;;;;;;;;;;;;;;4.73;100.00;99132.97;5039117;28;19916;-79
2021/12/08 03:38:25;;;;;;;;;;;;;;;4.71;100.00;99139.81;5039582;28;19917;-78
2021/12/08 03:40:50;;;;;;;;;;;;;;;4.64;100.00;99147.44;5038665;28;19920;-79
2021/12/08 03:43:16;;;;;;;;;;;;;;;4.60;100.00;99156.03;5038680;28;19916;-79
2021/12/08 03:45:47;;;;;;;;;;;;;;;4.62;100.00;99166.50;5038765;28;20379;-79
2021/12/08 03:48:24;;;;;;;;;;;;;;;4.57;100.00;99171.56;5056272;28;19924;-79
2021/12/08 03:50:50;;;;;;;;;;;;;;;4.54;100.00;99178.38;5038779;28;20074;-79
2021/12/08 03:53:16;;;;;;;;;;;;;;;4.49;100.00;99189.56;5038769;28;19986;-79
2021/12/08 03:55:42;;;;;;;;;;;;;;;4.45;100.00;99211.13;5038384;28;19920;-78
2021/12/08 03:58:15;;;;;;;;;;;;;;;4.40;100.00;99207.50;5022281;28;19978;-79
2021/12/08 04:00:42;;;;;;;;;;;;;;;4.39;100.00;99215.25;5038852;28;19946;-79
2021/12/08 04:03:07;;;;;;;;;;;;;;;4.37;100.00;99225.63;5038709;28;19966;-79
2021/12/08 04:05:45;;;;;;;;;;;;;;;4.36;100.00;99234.28;5038856;28;19991;-80
2021/12/08 04:08:18;;;;;;;;;;;;;;;4.38;100.00;99230.03;5038133;28;19995;-79
2021/12/08 04:10:49;;;;;;;;;;;;;;;4.34;100.00;99230.72;5038194;28;20002;-78
2021/12/08 04:13:16;;;;;;;;;;;;;;;4.37;100.00;99228.22;5038663;28;20061;-79
2021/12/08 04:15:42;;;;;;;;;;;;;;;4.38;100.00;99224.81;5038354;28;19966;-78
2021/12/08 04:18:12;;;;;;;;;;;;;;;4.41;100.00;99221.41;5038428;28;19960;-79
2021/12/08 04:20:42;;;;;;;;;;;;;;;4.36;100.00;99222.97;5038708;28;19916;-79
2021/12/08 04:23:09;;;;;;;;;;;;;;;4.34;100.00;99216.81;5037991;28;19912;-78
2021/12/08 04:25:37;;;;;;;;;;;;;;;4.25;100.00;99228.69;5038537;28;19970;-79
2021/12/08 04:28:05;;;;;;;;;;;;;;;4.22;100.00;99225.09;5037720;28;19939;-78
2021/12/08 04:30:35;;;;;;;;;;;;;;;4.18;100.00;99223.19;5038423;28;20349;-79
2021/12/08 04:33:00;;;;;;;;;;;;;;;4.13;100.00;99233.44;5038656;28;20010;-80
2021/12/08 04:35:26;;;;;;;;;;;;;;;4.14;100.00;99238.72;5038637;28;20020;-79
2021/12/08 04:37:54;;;;;;;;;;;;;;;4.10;100.00;99254.19;5037263;28;20402;-78
2021/12/08 04:40:50;;;;;;;;;;;;;;;4.06;100.00;99254.94;5037992;28;19917;-80
2021/12/08 05:04:52;;;;;;;;;;;;;;;3.66;100.00;99240.44;5055143;28;19925;-79
2021/12/08 05:10:09;;;;;;;;;;;;;;;3.67;100.00;99257.81;5035166;28;20372;-79
2021/12/08 05:12:35;;;;;;;;;;;;;;;3.74;100.00;99259.81;5017732;28;20345;-80
2021/12/08 05:15:05;;;;;;;;;;;;;;;3.67;100.00;99257.81;5017702;28;19921;-78
2021/12/08 05:17:33;;;;;;;;;;;;;;;3.56;100.00;99266.09;5017830;28;19916;-79
2021/12/08 05:20:00;;;;;;;;;;;;;;;3.49;100.00;99265.81;5017197;28;19920;-79
2021/12/08 05:22:28;;;;;;;;;;;;;;;3.58;100.00;99272.25;5017642;28;20007;-79
2021/12/08 05:24:54;;;;;;;;;;;;;;;3.61;100.00;99268.88;5017582;28;20348;-78
2021/12/08 05:27:29;;;;;;;;;;;;;;;3.62;100.00;99270.66;5016880;28;19920;-78
2021/12/08 05:30:06;;;;;;;;;;;;;;;3.54;100.00;99261.66;5023811;28;19921;-78
2021/12/08 05:32:32;;;;;;;;;;;;;;;3.50;100.00;99273.66;5016449;28;20782;-78
2021/12/08 05:34:57;;;;;;;;;;;;;;;3.53;100.00;99273.78;5016343;28;19971;-78
2021/12/08 05:37:36;;;;;;;;;;;;;;;3.50;100.00;99294.50;5017760;28;19970;-78
2021/12/08 05:40:04;;;;;;;;;;;;;;;3.50;100.00;99293.63;5016569;28;19936;-78
2021/12/08 05:42:30;;;;;;;;;;;;;;;3.50;100.00;99304.91;5016180;28;19917;-79
2021/12/08 05:44:56;;;;;;;;;;;;;;;3.59;100.00;99294.84;5028682;28;19956;-78
2021/12/08 05:47:25;;;;;;;;;;;;;;;3.58;100.00;99295.66;5034904;28;20344;-78
2021/12/08 05:49:53;;;;;;;;;;;;;;;3.61;100.00;99286.22;5035565;28;19916;-78
2021/12/08 05:52:19;;;;;;;;;;;;;;;3.58;100.00;99285.25;5022924;28;20495;-79
2021/12/08 05:54:47;;;;;;;;;;;;;;;3.59;100.00;99291.38;5015410;28;19917;-80
2021/12/08 05:57:14;;;;;;;;;;;;;;;3.60;100.00;99295.72;5015838;28;19960;-79
2021/12/08 05:59:40;;;;;;;;;;;;;;;3.62;100.00;99306.19;5015761;28;19994;-78
2021/12/08 06:02:12;;;;;;;;;;;;;;;3.58;100.00;99313.88;5014956;28;20269;-79
2021/12/08 06:04:37;;;;;;;;;;;;;;;3.49;100.00;99310.06;5015921;28;19913;-79
2021/12/08 06:07:04;;;;;;;;;;;;;;;3.50;100.00;99317.91;5015641;28;20277;-80
2021/12/08 06:09:30;;;;;;;;;;;;;;;3.61;100.00;99322.66;5015222;28;19917;-79
2021/12/08 06:11:56;;;;;;;;;;;;;;;3.61;100.00;99314.84;5015343;28;19994;-79
2021/12/08 06:14:24;;;;;;;;;;;;;;;3.58;100.00;99313.88;5034061;28;19964;-78
2021/12/08 06:16:52;;;;;;;;;;;;;;;3.50;100.00;99314.44;5035661;28;19916;-80
2021/12/08 06:19:19;;;;;;;;;;;;;;;3.46;100.00;99315.13;5017010;28;19924;-79
2021/12/08 06:21:45;;;;;;;;;;;;;;;3.52;100.00;99316.25;5015187;28;19924;-78
2021/12/08 06:24:12;;;;;;;;;;;;;;;3.52;100.00;99326.66;5028546;28;19917;-78
2021/12/08 06:26:38;;;;;;;;;;;;;;;3.47;100.00;99342.94;5035837;28;19960;-76
2021/12/08 06:29:04;;;;;;;;;;;;;;;3.49;100.00;99342.16;5034943;28;19924;-77
2021/12/08 06:31:30;;;;;;;;;;;;;;;3.57;100.00;99345.06;5032061;28;19927;-78
2021/12/08 06:33:56;;;;;;;;;;;;;;;3.58;100.00;99337.31;5015624;28;19917;-78
2021/12/08 06:36:24;;;;;;;;;;;;;;;3.56;100.00;99343.31;5015933;28;19921;-76
2021/12/08 06:38:54;;;;;;;;;;;;;;;3.62;100.00;99342.66;5016562;28;19917;-77
2021/12/08 06:41:31;;;;;;;;;;;;;;;3.63;100.00;99336.63;5016181;28;19921;-77
2021/12/08 06:43:59;;;;;;;;;;;;;;;3.70;100.00;99334.31;5019392;28;20241;-78
2021/12/08 06:46:26;;;;;;;;;;;;;;;3.76;100.00;99341.50;5016293;28;19953;-76
2021/12/08 06:48:55;;;;;;;;;;;;;;;3.75;100.00;99343.19;5027100;28;19917;-77
2021/12/08 06:51:25;;;;;;;;;;;;;;;3.81;100.00;99352.06;5013716;28;19960;-78
2021/12/08 06:53:55;;;;;;;;;;;;;;;3.75;100.00;99345.78;5018917;28;20379;-78
2021/12/08 06:56:27;;;;;;;;;;;;;;;3.73;100.00;99352.66;5037173;28;19924;-77
2021/12/08 06:58:58;;;;;;;;;;;;;;;3.77;100.00;99358.88;5031064;28;19999;-76
2021/12/08 07:04:13;;;;;;;;;;;;;;;3.66;100.00;99362.78;5050127;28;19917;-75
2021/12/08 07:06:56;;;;;;;;;;;;;;;3.59;100.00;99365.13;5026721;28;19917;-76
2021/12/08 07:09:25;;;;;;;;;;;;;;;3.56;100.00;99359.81;5025624;28;19924;-76
2021/12/08 07:11:53;;;;;;;;;;;;;;;3.48;100.00;99360.31;5038777;28;19920;-78
2021/12/08 07:14:19;;;;;;;;;;;;;;;3.44;100.00;99364.50;5039187;28;19917;-78
2021/12/08 07:16:47;;;;;;;;;;;;;;;3.44;100.00;99380.13;5039135;28;19923;-78
2021/12/08 07:19:24;;;;;;;;;;;;;;;3.44;100.00;99374.03;5020849;28;19925;-78
2021/12/08 07:21:50;;;;;;;;;;;;;;;3.45;100.00;99384.53;5019660;28;20684;-77
2021/12/08 07:24:21;;;;;;;;;;;;;;;3.41;100.00;99380.88;5018460;28;19917;-75
2021/12/08 07:26:48;;;;;;;;;;;;;;;3.43;100.00;99375.75;5017911;28;20321;-77
2021/12/08 07:29:22;;;;;;;;;;;;;;;3.40;100.00;99379.13;5017931;28;19917;-77
2021/12/08 07:31:51;;;;;;;;;;;;;;;3.42;100.00;99382.66;5034017;28;20428;-76
2021/12/08 07:34:19;;;;;;;;;;;;;;;3.44;100.00;99385.34;5027640;28;19978;-76
2021/12/08 07:36:48;;;;;;;;;;;;;;;3.39;100.00;99398.16;5038228;28;19923;-77
2021/12/08 07:39:22;;;;;;;;;;;;;;;3.38;100.00;99388.56;5036639;28;19990;-79
2021/12/08 07:41:52;;;;;;;;;;;;;;;3.37;100.00;99388.50;5038502;28;19917;-75
2021/12/08 07:44:18;;;;;;;;;;;;;;;3.34;100.00;99391.88;5029758;28;19960;-79
2021/12/08 07:46:46;;;;;;;;;;;;;;;3.30;100.00;99402.09;5017915;28;20779;-77
2021/12/08 07:49:15;;;;;;;;;;;;;;;3.35;100.00;99398.84;5018460;28;19932;-78
2021/12/08 07:51:46;;;;;;;;;;;;;;;3.31;100.00;99398.66;5018169;28;19921;-78
2021/12/08 07:54:11;;;;;;;;;;;;;;;3.29;100.00;99389.91;5017418;28;19917;-76
2021/12/08 07:56:38;;;;;;;;;;;;;;;3.34;100.00;99385.75;5016740;28;19917;-78
2021/12/08 07:59:05;;;;;;;;;;;;;;;3.37;100.00;99393.69;5018671;28;19917;-79
2021/12/08 08:01:40;;;;;;;;;;;;;;;3.31;100.00;99383.03;5031613;28;20022;-79
2021/12/08 08:04:07;;;;;;;;;;;;;;;3.22;100.00;99384.44;5037581;28;19970;-77
2021/12/08 08:06:34;;;;;;;;;;;;;;;3.24;100.00;99389.72;5033029;28;19923;-79
2021/12/08 08:09:01;;;;;;;;;;;;;;;3.20;100.00;99383.50;5036909;28;19920;-79
2021/12/08 08:11:33;;;;;;;;;;;;;;;3.21;100.00;99381.78;5037290;28;19917;-80
2021/12/08 08:13:59;;;;;;;;;;;;;;;3.27;100.00;99391.56;5036941;28;20341;-79
2021/12/08 08:16:28;;;;;;;;;;;;;;;3.27;100.00;99388.97;5026542;28;19923;-77
2021/12/08 08:19:02;;;;;;;;;;;;;;;3.28;100.00;99388.13;5032834;28;19923;-79
2021/12/08 08:21:28;;;;;;;;;;;;;;;3.37;100.00;99383.28;5037714;28;19924;-78
2021/12/08 08:23:54;;;;;;;;;;;;;;;3.49;100.00;99381.19;5036410;28;20402;-79
2021/12/08 08:26:19;;;;;;;;;;;;;;;3.66;100.00;99384.47;5037941;28;19920;-79
2021/12/08 08:28:50;;;;;;;;;;;;;;;3.77;100.00;99390.13;5037203;28;19916;-77
2021/12/08 08:31:18;;;;;;;;;;;;;;;3.87;100.00;99389.66;5036907;28;19918;-77
2021/12/08 08:33:43;;;;;;;;;;;;;;;3.95;100.00;99387.34;5037456;28;20420;-76
2021/12/08 08:36:10;;;;;;;;;;;;;;;4.03;100.00;99398.06;5037566;28;20011;-79
2021/12/08 08:38:42;;;;;;;;;;;;;;;4.01;100.00;99402.31;5037707;28;19920;-77
2021/12/08 08:41:37;;;;;;;;;;;;;;;3.99;100.00;99407.47;5036677;28;19917;-77
2021/12/08 08:44:04;;;;;;;;;;;;;;;3.92;100.00;99406.34;5008730;28;20341;-77
2021/12/08 08:46:34;;;;;;;;;;;;;;;3.88;100.00;99412.25;5029017;28;20383;-78
2021/12/08 08:49:06;;;;;;;;;;;;;;;3.86;100.00;99416.53;5037004;28;19917;-78
2021/12/08 08:51:40;;;;;;;;;;;;;;;3.88;100.00;99412.25;5033126;28;19917;-76
2021/12/08 08:54:08;;;;;;;;;;;;;;;3.86;100.00;99413.03;5028967;28;19920;-77
2021/12/08 08:56:36;;;;;;;;;;;;;;;3.84;100.00;99415.59;5037083;28;19917;-77
2021/12/08 08:59:05;;;;;;;;;;;;;;;3.90;100.00;99418.44;5036612;28;20011;-75
2021/12/08 09:01:33;;;;;;;;;;;;;;;4.01;100.00;99424.06;5033639;28;19921;-78
2021/12/08 09:04:03;;;;;;;;;;;;;;;4.11;100.00;99418.38;5034569;28;19982;-76
2021/12/08 09:06:31;;;;;;;;;;;;;;;4.16;100.00;99430.69;5017357;28;19917;-79
2021/12/08 09:08:56;;;;;;;;;;;;;;;4.16;100.00;99438.50;5016073;28;19955;-78
2021/12/08 09:11:28;;;;;;;;;;;;;;;4.19;100.00;99436.91;5023327;28;19916;-77
2021/12/08 09:14:00;;;;;;;;;;;;;;;4.19;100.00;99436.91;5023036;28;19923;-77
2021/12/08 09:16:28;;;;;;;;;;;;;;;4.22;100.00;99437.03;5017128;28;19917;-80
2021/12/08 09:19:03;;;;;;;;;;;;;;;4.26;100.00;99433.72;5030449;28;19916;-77
2021/12/08 09:21:42;;;;;;;;;;;;;;;4.29;100.00;99435.56;5036857;28;20315;-78
2021/12/08 09:24:08;;;;;;;;;;;;;;;4.33;100.00;99424.41;5037068;28;19916;-79
2021/12/08 09:26:35;;;;;;;;;;;;;;;4.41;100.00;99433.44;5036824;28;19917;-78
2021/12/08 09:29:05;;;;;;;;;;;;;;;4.44;100.00;99437.84;5036505;28;19924;-78
2021/12/08 09:31:38;;;;;;;;;;;;;;;4.49;100.00;99438.94;5036180;28;19920;-77
2021/12/08 09:34:10;;;;;;;;;;;;;;;4.56;100.00;99438.31;5036034;28;20435;-79
2021/12/08 09:36:39;;;;;;;;;;;;;;;4.62;100.00;99446.34;5036188;28;19917;-76
2021/12/08 09:39:13;;;;;;;;;;;;;;;4.67;100.00;99442.19;5034934;28;19924;-78
2021/12/08 09:41:57;;;;;;;;;;;;;;;4.75;100.00;99432.03;5053508;28;19917;-77
2021/12/08 09:44:24;;;;;;;;;;;;;;;4.77;100.00;99442.53;5034847;28;19916;-77
2021/12/08 09:46:52;;;;;;;;;;;;;;;4.75;100.00;99450.28;5020921;28;19921;-77
2021/12/08 09:49:19;;;;;;;;;;;;;;;4.74;100.00;99453.75;5019241;28;19928;-78
2021/12/08 09:51:45;;;;;;;;;;;;;;;4.67;100.00;99455.22;5026657;28;19917;-77
2021/12/08 09:54:11;;;;;;;;;;;;;;;4.61;100.00;99462.81;5035131;28;19923;-77
2021/12/08 09:56:36;;;;;;;;;;;;;;;4.64;100.00;99467.28;5034545;28;20008;-77
2021/12/08 09:59:05;;;;;;;;;;;;;;;4.71;100.00;99469.28;5033930;28;19920;-77
2021/12/08 10:01:32;;;;;;;;;;;;;;;4.79;100.00;99477.41;5034005;28;19999;-77
2021/12/08 10:03:59;;;;;;;;;;;;;;;4.80;100.00;99476.53;5033943;28;19924;-78
2021/12/08 10:06:24;;;;;;;;;;;;;;;4.87;100.00;99488.13;5034151;28;20003;-77
2021/12/08 10:08:50;;;;;;;;;;;;;;;4.97;100.00;99487.59;5033169;28;20027;-78
2021/12/08 10:11:16;;;;;;;;;;;;;;;4.98;100.00;99486.78;5034423;28;19924;-77
2021/12/08 10:13:42;;;;;;;;;;;;;;;4.97;100.00;99493.72;5033524;28;19917;-78
2021/12/08 10:16:08;;;;;;;;;;;;;;;5.08;100.00;99488.91;5033849;28;20012;-76
2021/12/08 10:18:34;;;;;;;;;;;;;;;5.07;100.00;99492.34;5034128;28;19917;-78
2021/12/08 10:20:59;;;;;;;;;;;;;;;5.09;100.00;99497.59;5033249;28;19999;-76
2021/12/08 10:23:30;;;;;;;;;;;;;;;5.03;100.00;99493.94;5034105;28;20369;-76
2021/12/08 10:26:15;;;;;;;;;;;;;;;4.96;100.00;99486.72;5033850;28;19966;-79
2021/12/08 10:28:47;;;;;;;;;;;;;;;4.96;100.00;99485.84;5033525;28;19924;-79
2021/12/08 10:31:30;;;;;;;;;;;;;;;4.95;100.00;99479.72;5037746;28;19917;-78
2021/12/08 10:36:53;;;;;;;;;;;;;;;4.96;100.00;99485.84;5054781;28;19917;-79
2021/12/08 10:39:38;;;;;;;;;;;;;;;4.91;100.00;99490.00;5038124;28;19921;-79
2021/12/08 10:42:14;;;;;;;;;;;;;;;4.92;100.00;99484.81;5037207;28;19967;-79
2021/12/08 10:44:51;;;;;;;;;;;;;;;4.87;100.00;99491.59;5038147;28;19923;-79
2021/12/08 10:47:25;;;;;;;;;;;;;;;4.94;100.00;99487.50;5038183;28;19991;-77
2021/12/08 10:55:03;;;;;;;;;;;;;;;4.85;100.00;99491.53;5055446;28;19967;-80
2021/12/08 10:57:37;;;;;;;;;;;;;;;4.83;100.00;99494.91;5035860;28;20273;-79
2021/12/08 11:00:05;;;;;;;;;;;;;;;4.83;100.00;99493.22;5039589;28;20335;-80
2021/12/08 11:02:42;;;;;;;;;;;;;;;4.83;100.00;99485.41;5039329;28;19916;-80
2021/12/08 11:05:26;;;;;;;;;;;;;;;4.81;100.00;99489.66;5039121;28;19997;-79
2021/12/08 11:08:11;;;;;;;;;;;;;;;4.82;100.00;99491.44;5038813;28;19916;-79
2021/12/08 11:10:44;;;;;;;;;;;;;;;4.84;100.00;99494.97;5026597;28;20344;-78
2021/12/08 11:13:09;;;;;;;;;;;;;;;4.80;100.00;99490.50;5039707;28;19917;-78
2021/12/08 11:15:39;;;;;;;;;;;;;;;4.85;100.00;99488.94;5037438;28;20372;-78
2021/12/08 11:18:14;;;;;;;;;;;;;;;4.84;100.00;99483.66;5019159;28;19924;-79
2021/12/08 11:20:44;;;;;;;;;;;;;;;4.91;100.00;99487.38;5019343;28;19924;-77
2021/12/08 11:23:13;;;;;;;;;;;;;;;5.03;100.00;99477.38;5019924;28;19917;-79
2021/12/08 11:25:41;;;;;;;;;;;;;;;5.22;100.00;99472.00;5018668;28;19917;-77
2021/12/08 11:28:22;;;;;;;;;;;;;;;5.20;100.00;99475.38;5035816;28;19924;-80
2021/12/08 11:30:48;;;;;;;;;;;;;;;5.37;100.00;99484.69;5027411;28;19983;-78
2021/12/08 11:33:17;;;;;;;;;;;;;;;5.43;100.00;99472.72;5018437;28;19935;-79
2021/12/08 11:35:42;;;;;;;;;;;;;;;5.44;100.00;99474.47;5017695;28;20499;-77
2021/12/08 11:38:08;;;;;;;;;;;;;;;5.40;100.00;99482.19;5017653;28;19956;-80
2021/12/08 11:40:34;;;;;;;;;;;;;;;5.33;100.00;99477.59;5018031;28;20004;-77
2021/12/08 11:43:00;;;;;;;;;;;;;;;5.30;100.00;99481.81;5017674;28;19970;-80
2021/12/08 11:45:25;;;;;;;;;;;;;;;5.30;100.00;99490.56;5018110;28;19914;-78
2021/12/08 11:47:51;;;;;;;;;;;;;;;5.31;100.00;99489.69;5017670;28;19924;-78
2021/12/08 11:50:21;;;;;;;;;;;;;;;5.54;100.00;99500.06;5018714;28;19913;-77
2021/12/08 11:52:50;;;;;;;;;;;;;;;5.60;100.00;99499.41;5017565;28;19948;-78
2021/12/08 11:55:16;;;;;;;;;;;;;;;5.52;100.00;99504.34;5017900;28;19970;-75
2021/12/08 11:57:47;;;;;;;;;;;;;;;5.50;100.00;99493.84;5018003;28;19917;-76
2021/12/08 12:00:24;;;;;;;;;;;;;;;5.45;100.00;99503.22;5020970;28;20235;-76
2021/12/08 12:02:56;;;;;;;;;;;;;;;5.39;100.00;99498.72;5021231;28;20347;-78
2021/12/08 12:05:27;;;;;;;;;;;;;;;5.33;100.00;99519.38;5038235;28;19998;-80
2021/12/08 12:07:54;;;;;;;;;;;;;;;5.29;100.00;99504.44;5037237;28;19920;-80
2021/12/08 12:10:20;;;;;;;;;;;;;;;5.28;100.00;99501.75;5038097;28;19916;-77
2021/12/08 12:12:45;;;;;;;;;;;;;;;5.34;100.00;99508.06;5035707;28;19923;-79
2021/12/08 12:15:12;;;;;;;;;;;;;;;5.35;100.00;99517.69;5018351;28;19921;-79
2021/12/08 12:17:38;;;;;;;;;;;;;;;5.38;100.00;99515.19;5027243;28;19920;-80
2021/12/08 12:20:06;;;;;;;;;;;;;;;5.35;100.00;99522.03;5037803;28;20383;-79
2021/12/08 12:22:39;;;;;;;;;;;;;;;5.29;100.00;99517.47;5037870;28;19924;-78
2021/12/08 12:25:14;;;;;;;;;;;;;;;5.35;100.00;99507.25;5033974;28;19953;-77
2021/12/08 12:27:55;;;;;;;;;;;;;;;5.35;100.00;99515.09;5026241;28;19924;-78
2021/12/08 12:30:42;;;;;;;;;;;;;;;5.36;100.00;99511.66;5018589;28;19917;-78
2021/12/08 12:33:16;;;;;;;;;;;;;;;5.31;100.00;99505.34;5019939;28;19917;-78
2021/12/08 12:35:46;;;;;;;;;;;;;;;5.23;100.00;99530.31;5018192;28;19975;-76
2021/12/08 12:38:13;;;;;;;;;;;;;;;5.24;100.00;99529.47;5017864;28;20010;-79
2021/12/08 12:40:40;;;;;;;;;;;;;;;5.19;100.00;99544.09;5016512;28;19917;-78
2021/12/08 12:43:06;;;;;;;;;;;;;;;5.23;100.00;99545.97;5027898;28;20061;-79
2021/12/08 12:45:43;;;;;;;;;;;;;;;5.29;100.00;99550.53;5029175;28;19924;-79
2021/12/08 12:48:10;;;;;;;;;;;;;;;5.27;100.00;99545.25;5037059;28;19999;-79
2021/12/08 12:50:54;;;;;;;;;;;;;;;5.30;100.00;99550.59;5018498;28;19920;-78
2021/12/08 12:53:31;;;;;;;;;;;;;;;5.33;100.00;99555.91;5016747;28;19917;-80
2021/12/08 12:55:57;;;;;;;;;;;;;;;5.36;100.00;99571.69;5017428;28;19996;-78
2021/12/08 12:58:23;;;;;;;;;;;;;;;5.37;100.00;99567.34;5017350;28;19949;-79
2021/12/08 13:01:04;;;;;;;;;;;;;;;5.47;100.00;99566.84;5016350;28;19956;-78
2021/12/08 13:03:37;;;;;;;;;;;;;;;5.50;100.00;99568.66;5016225;28;20006;-79
2021/12/08 13:06:03;;;;;;;;;;;;;;;5.51;100.00;99578.28;5016016;28;19992;-78
2021/12/08 13:08:36;;;;;;;;;;;;;;;5.47;100.00;99573.78;5015888;28;20043;-78
2021/12/08 13:11:10;;;;;;;;;;;;;;;5.56;100.00;99579.34;5015333;28;20031;-76
2021/12/08 13:13:46;;;;;;;;;;;;;;;5.52;100.00;99583.56;5016325;28;19917;-78
2021/12/08 13:16:24;;;;;;;;;;;;;;;5.50;100.00;99585.25;5015993;28;19917;-76
2021/12/08 13:18:57;;;;;;;;;;;;;;;5.48;100.00;99583.41;5015776;28;19948;-78
2021/12/08 13:21:38;;;;;;;;;;;;;;;5.54;100.00;99584.50;5015868;28;19923;-76
2021/12/08 13:24:03;;;;;;;;;;;;;;;5.59;100.00;99595.09;5014472;28;20261;-76
2021/12/08 13:26:31;;;;;;;;;;;;;;;5.57;100.00;99602.00;5015456;28;19917;-77
2021/12/08 13:29:10;;;;;;;;;;;;;;;5.63;100.00;99602.22;5015878;28;19920;-76
2021/12/08 13:31:58;;;;;;;;;;;;;;;5.64;100.00;99598.81;5015062;28;19916;-77
2021/12/08 13:34:24;;;;;;;;;;;;;;;5.74;100.00;99595.66;5015504;28;20496;-76
2021/12/08 13:36:49;;;;;;;;;;;;;;;5.68;100.00;99605.00;5015178;28;19953;-75
2021/12/08 13:39:20;;;;;;;;;;;;;;;5.68;100.00;99605.88;5015040;28;20412;-78
2021/12/08 13:41:54;;;;;;;;;;;;;;;5.70;100.00;99606.84;5015251;28;20349;-77
2021/12/08 13:44:25;;;;;;;;;;;;;;;5.70;100.00;99617.31;5014835;28;19917;-76
2021/12/08 13:46:53;;;;;;;;;;;;;;;5.71;100.00;99616.44;5014628;28;20443;-77
2021/12/08 13:49:26;;;;;;;;;;;;;;;5.68;100.00;99611.09;5015125;28;20342;-77
2021/12/08 13:51:59;;;;;;;;;;;;;;;5.50;100.00;99623.50;5014777;28;19952;-77